createdAt,value
2018-06-22T06:31:26.424Z,58.19
2018-06-22T06:33:55.891Z,59.39
2018-06-22T06:36:26.375Z,58.77
2018-06-22T06:38:55.565Z,57.58
2018-06-22T06:41:24.934Z,59.56
2018-06-22T06:43:54.081Z,60.22
2018-06-22T06:46:23.252Z,61.42
2018-06-22T06:48:52.440Z,59.26
2018-06-22T06:51:21.764Z,57.19
2018-06-22T06:53:51.027Z,55.79
2018-06-22T06:56:20.245Z,58.72
2018-06-22T06:58:49.446Z,58.74
2018-06-22T07:01:18.596Z,57.53
2018-06-22T07:03:48.042Z,58.55
2018-06-22T07:06:17.196Z,57.22
2018-06-22T07:08:46.440Z,57.88
2018-06-22T07:11:15.614Z,57.54
2018-06-22T07:13:44.882Z,57.20
2018-06-22T07:16:14.202Z,55.12
2018-06-22T07:18:43.468Z,59.25
2018-06-22T07:21:12.758Z,57.11
2018-06-22T07:23:41.908Z,56.69
2018-06-22T07:26:11.108Z,57.98
2018-06-22T07:28:40.506Z,57.33
2018-06-22T07:31:09.982Z,55.92
2018-06-22T07:33:39.228Z,55.53
2018-06-22T07:36:08.438Z,56.42
2018-06-22T07:38:37.668Z,58.40
2018-06-22T07:41:06.981Z,54.97
2018-06-22T07:43:36.232Z,57.27
2018-06-22T07:46:05.440Z,56.66
2018-06-22T07:48:34.712Z,57.73
2018-06-22T07:51:03.955Z,55.26
2018-06-22T07:53:33.168Z,56.55
2018-06-22T07:56:02.372Z,56.59
2018-06-22T07:58:31.660Z,55.35
2018-06-22T08:01:00.880Z,55.42
2018-06-22T08:03:30.088Z,56.64
2018-06-22T08:05:59.254Z,55.18
2018-06-22T08:08:28.485Z,54.68
2018-06-22T08:10:57.688Z,55.35
2018-06-22T08:13:26.943Z,52.69
2018-06-22T08:15:56.131Z,54.69
2018-06-22T08:18:25.331Z,53.65
2018-06-22T08:20:54.567Z,54.21
2018-06-22T08:23:23.775Z,54.54
2018-06-22T08:25:53.013Z,51.61
2018-06-22T08:28:22.218Z,51.12
2018-06-22T08:30:51.419Z,52.92
2018-06-22T08:33:20.878Z,51.58
2018-06-22T08:35:50.129Z,54.52
2018-06-22T08:38:19.338Z,53.26
2018-06-22T08:40:48.524Z,53.14
2018-06-22T08:43:17.723Z,51.29
2018-06-22T08:45:46.982Z,52.31
2018-06-22T08:48:16.141Z,53.19
2018-06-22T08:50:45.397Z,53.12
2018-06-22T08:53:14.670Z,51.87
2018-06-22T08:55:43.875Z,53.11
2018-06-22T08:58:13.127Z,51.65
2018-06-22T09:00:42.360Z,52.54
2018-06-22T09:03:11.710Z,50.50
2018-06-22T09:05:40.953Z,49.96
2018-06-22T09:08:10.309Z,47.05
2018-06-22T09:10:39.484Z,49.47
2018-06-22T09:13:08.693Z,49.93
2018-06-22T09:15:37.946Z,49.24
2018-06-22T09:18:07.172Z,49.22
2018-06-22T09:20:36.420Z,49.84
2018-06-22T09:23:05.888Z,47.55
2018-06-22T09:25:35.096Z,49.32
2018-06-22T09:28:04.399Z,46.88
2018-06-22T09:30:33.671Z,50.05
2018-06-22T09:33:02.881Z,49.51
2018-06-22T09:35:32.134Z,45.30
2018-06-22T09:38:01.361Z,44.34
2018-06-22T09:40:30.708Z,46.63
2018-06-22T09:42:59.960Z,47.63
2018-06-22T09:45:29.218Z,46.97
2018-06-22T09:47:58.448Z,46.69
2018-06-22T09:50:27.775Z,48.18
2018-06-22T09:52:57.016Z,45.20
2018-06-22T09:55:26.246Z,46.88
2018-06-22T09:57:55.454Z,46.90
2018-06-22T10:00:24.694Z,46.98
2018-06-22T10:02:53.856Z,47.10
2018-06-22T10:05:23.019Z,46.58
2018-06-22T10:07:52.199Z,47.98
2018-06-22T10:10:21.437Z,48.61
2018-06-22T10:12:50.703Z,45.16
2018-06-22T10:15:20.255Z,46.01
2018-06-22T10:17:49.578Z,45.17
2018-06-22T10:20:18.906Z,44.90
2018-06-22T10:22:48.078Z,45.04
2018-06-22T10:25:17.335Z,46.10
2018-06-22T10:27:46.501Z,46.13
2018-06-22T10:30:15.828Z,46.66
2018-06-22T10:32:45.022Z,44.78
2018-06-22T10:35:14.332Z,42.67
2018-06-22T10:37:43.511Z,45.30
2018-06-22T10:40:12.708Z,48.68
2018-06-22T10:42:42.039Z,46.19
2018-06-22T10:45:11.249Z,45.59
2018-06-22T10:47:40.496Z,46.85
2018-06-22T10:50:09.764Z,45.28
2018-06-22T10:52:39.083Z,44.77
2018-06-22T10:55:08.337Z,44.37
2018-06-22T10:57:37.728Z,42.87
2018-06-22T11:00:07.603Z,42.80
2018-06-22T11:02:37.107Z,45.31
2018-06-22T11:05:06.561Z,44.60
2018-06-22T11:07:35.879Z,46.55
2018-06-22T11:10:05.285Z,46.64
2018-06-22T11:12:34.549Z,46.41
2018-06-22T11:15:03.958Z,47.72
2018-06-22T11:17:33.264Z,43.28
2018-06-22T11:20:02.489Z,47.09
2018-06-22T11:22:31.953Z,47.65
2018-06-22T11:25:01.256Z,48.89
2018-06-22T11:27:30.595Z,48.09
2018-06-22T11:29:59.817Z,43.90
2018-06-22T11:32:29.311Z,44.74
2018-06-22T11:34:58.563Z,44.18
2018-06-22T11:37:27.862Z,44.99
2018-06-22T11:39:57.238Z,46.52
2018-06-22T11:42:26.465Z,45.57
2018-06-22T11:44:55.667Z,47.10
2018-06-22T11:47:24.935Z,45.53
2018-06-22T11:49:54.139Z,47.85
2018-06-22T11:52:23.340Z,49.24
2018-06-22T11:54:52.692Z,47.14
2018-06-22T11:57:21.938Z,49.01
2018-06-22T11:59:51.266Z,48.34
2018-06-22T12:02:20.545Z,49.21
2018-06-22T12:04:49.846Z,49.03
2018-06-22T12:07:19.076Z,48.19
2018-06-22T12:09:48.290Z,47.89
2018-06-22T12:12:17.528Z,48.19
2018-06-22T12:14:46.725Z,48.26
2018-06-22T12:17:16.073Z,45.84
2018-06-22T12:19:45.338Z,47.19
2018-06-22T12:22:14.660Z,47.78
2018-06-22T12:24:43.987Z,47.85
2018-06-22T12:27:13.244Z,47.09
2018-06-22T12:29:42.573Z,45.90
2018-06-22T12:32:12.023Z,47.23
2018-06-22T12:34:41.190Z,46.21
2018-06-22T12:37:10.379Z,47.51
2018-06-22T12:39:39.567Z,47.01
2018-06-22T12:42:08.892Z,47.64
2018-06-22T12:44:38.116Z,48.65
2018-06-22T12:47:07.413Z,50.46
2018-06-22T12:49:36.759Z,50.01
2018-06-22T12:52:06.204Z,48.28
2018-06-22T12:54:35.687Z,49.60
2018-06-22T12:58:47.539Z,46.62
2018-06-22T13:01:16.862Z,47.98
2018-06-22T13:03:46.104Z,47.82
2018-06-22T13:06:15.376Z,43.53
2018-06-22T13:08:44.640Z,44.98
2018-06-22T13:11:14.142Z,44.80
2018-06-22T13:13:43.405Z,47.17
2018-06-22T13:16:13.211Z,49.88
2018-06-22T13:18:42.973Z,55.36
2018-06-22T13:21:12.169Z,52.50
2018-06-22T13:23:41.319Z,52.33
2018-06-22T13:26:10.680Z,50.49
2018-06-22T13:28:39.857Z,48.40
2018-06-22T13:31:09.052Z,48.10
2018-06-22T13:33:38.422Z,45.14
2018-06-22T13:36:07.661Z,45.84
2018-06-22T13:38:37.082Z,46.79
2018-06-22T13:41:06.603Z,46.40
2018-06-22T13:43:36.401Z,48.45
2018-06-22T13:46:05.813Z,48.45
2018-06-22T13:48:35.116Z,48.97
2018-06-22T13:51:04.316Z,44.47
2018-06-22T13:53:33.729Z,45.86
2018-06-22T13:56:04.344Z,46.85
2018-06-22T13:58:33.639Z,43.75
2018-06-22T14:01:02.959Z,41.83
2018-06-22T14:03:32.260Z,41.71
2018-06-22T14:06:06.850Z,42.80
2018-06-22T14:08:36.076Z,42.25
2018-06-22T14:11:05.357Z,41.95
2018-06-22T14:13:34.657Z,39.70
2018-06-22T14:16:03.857Z,38.09
2018-06-22T14:18:33.055Z,39.04
2018-06-22T14:21:02.275Z,41.88
2018-06-22T14:23:31.476Z,36.41
2018-06-22T14:26:00.808Z,37.01
2018-06-22T14:28:30.169Z,36.84
2018-06-22T14:30:59.666Z,37.94
2018-06-22T14:33:28.943Z,37.15
2018-06-22T14:35:58.239Z,35.40
2018-06-22T14:38:27.578Z,34.38
2018-06-22T14:40:57.335Z,35.52
2018-06-22T14:43:27.020Z,35.96
2018-06-22T14:45:56.794Z,38.40
2018-06-22T14:48:26.003Z,40.41
2018-06-22T14:50:55.330Z,37.33
2018-06-22T14:53:29.988Z,41.61
2018-06-22T14:56:04.623Z,41.01
2018-06-22T14:58:39.025Z,42.32
2018-06-22T15:01:13.709Z,40.96
2018-06-22T15:03:48.194Z,41.13
2018-06-22T15:06:22.728Z,39.99
2018-06-22T15:08:51.917Z,39.25
2018-06-22T15:11:21.128Z,39.64
2018-06-22T15:13:50.344Z,37.92
2018-06-22T15:16:19.558Z,39.16
2018-06-22T15:18:49.249Z,39.71
2018-06-22T15:21:18.542Z,41.53
2018-06-22T15:23:48.040Z,41.40
2018-06-22T15:26:17.246Z,39.26
2018-06-22T15:28:46.429Z,42.01
2018-06-22T15:31:15.630Z,42.61
2018-06-22T15:34:48.029Z,43.11
2018-06-22T15:38:21.580Z,42.50
2018-06-22T15:40:56.232Z,42.98
2018-06-22T15:43:30.695Z,41.77
2018-06-22T15:46:05.193Z,43.54
2018-06-22T15:48:46.313Z,45.92
2018-06-22T15:51:20.841Z,45.25
2018-06-22T15:54:56.271Z,43.35
2018-06-22T15:57:25.490Z,41.18
2018-06-22T15:59:54.844Z,42.03
2018-06-22T16:02:29.427Z,42.99
2018-06-22T16:04:58.613Z,42.06
2018-06-22T16:07:27.901Z,41.12
2018-06-22T16:10:00.330Z,42.14
2018-06-22T16:12:36.505Z,42.61
2018-06-22T16:15:12.892Z,44.75
2018-06-22T16:17:47.365Z,45.69
2018-06-22T16:20:22.010Z,43.42
2018-06-22T16:22:56.511Z,45.05
2018-06-22T16:25:31.043Z,46.00
2018-06-22T16:28:01.660Z,44.75
2018-06-22T16:30:31.200Z,45.51
2018-06-22T16:33:00.592Z,44.13
2018-06-22T16:35:29.894Z,43.03
2018-06-22T16:37:59.179Z,45.60
2018-06-22T16:40:28.450Z,46.65
2018-06-22T16:42:57.744Z,46.06
2018-06-22T16:45:27.090Z,45.99
2018-06-22T16:47:56.417Z,46.32
2018-06-22T16:50:26.263Z,47.45
2018-06-22T16:52:55.485Z,46.29
2018-06-22T16:55:25.040Z,47.48
2018-06-22T16:57:54.359Z,48.13
2018-06-22T17:00:23.667Z,45.71
2018-06-22T17:02:52.943Z,46.06
2018-06-22T17:05:22.135Z,47.02
2018-06-22T17:07:56.859Z,47.71
2018-06-22T17:10:31.247Z,48.47
2018-06-22T17:14:04.797Z,48.61
2018-06-22T17:16:39.309Z,50.25
2018-06-22T17:19:08.905Z,50.81
2018-06-22T17:21:38.083Z,48.31
2018-06-22T17:24:07.363Z,50.33
2018-06-22T17:26:36.692Z,49.95
2018-06-22T17:29:05.981Z,48.26
2018-06-22T17:31:35.265Z,51.16
2018-06-22T17:34:04.555Z,51.23
2018-06-22T17:36:35.054Z,48.62
2018-06-22T17:39:06.520Z,49.57
2018-06-22T17:41:35.803Z,49.17
2018-06-22T17:44:05.268Z,48.94
2018-06-22T17:46:34.504Z,49.19
2018-06-22T17:49:03.831Z,50.14
2018-06-22T17:51:33.064Z,49.33
2018-06-22T17:54:02.283Z,48.15
2018-06-22T17:56:32.692Z,49.69
2018-06-22T17:59:07.377Z,51.59
2018-06-22T18:01:41.842Z,52.09
2018-06-22T18:04:16.172Z,52.03
2018-06-22T18:06:50.612Z,52.88
2018-06-22T18:09:25.141Z,51.73
2018-06-22T18:11:59.426Z,51.16
2018-06-22T18:14:28.740Z,50.52
2018-06-22T18:16:57.985Z,51.05
2018-06-22T18:19:27.364Z,52.54
2018-06-22T18:21:56.760Z,51.15
2018-06-22T18:24:26.050Z,51.99
2018-06-22T18:26:55.525Z,53.13
2018-06-22T18:29:24.999Z,54.31
2018-06-22T18:31:54.487Z,52.58
2018-06-22T18:34:23.723Z,52.87
2018-06-22T18:36:53.070Z,53.83
2018-06-22T18:39:22.394Z,51.99
2018-06-22T18:41:51.749Z,52.25
2018-06-22T18:44:21.115Z,53.70
2018-06-22T18:46:50.435Z,55.45
2018-06-22T18:49:20.128Z,55.89
2018-06-22T18:51:53.833Z,57.38
2018-06-22T18:54:28.394Z,57.20
2018-06-22T18:57:03.253Z,56.88
2018-06-22T18:59:37.858Z,57.95
2018-06-22T19:02:12.563Z,58.72
2018-06-22T19:04:41.880Z,58.78
2018-06-22T19:07:11.419Z,60.24
2018-06-22T19:09:40.745Z,60.04
2018-06-22T19:12:10.041Z,60.27
2018-06-22T19:14:39.242Z,59.78
2018-06-22T19:17:08.649Z,60.72
2018-06-22T19:19:37.933Z,61.37
2018-06-22T19:22:07.100Z,61.61
2018-06-22T19:24:36.349Z,61.74
2018-06-22T19:27:05.676Z,63.45
2018-06-22T19:29:35.000Z,63.40
2018-06-22T19:32:04.450Z,63.06
2018-06-22T19:34:39.041Z,62.88
2018-06-22T19:37:08.217Z,62.18
2018-06-22T19:39:39.333Z,62.62
2018-06-22T19:42:10.331Z,63.04
2018-06-22T19:44:46.541Z,64.05
2018-06-22T19:47:21.218Z,65.04
2018-06-22T19:49:55.718Z,65.50
2018-06-22T19:52:32.204Z,65.16
2018-06-22T19:55:03.096Z,65.93
2018-06-22T19:57:40.633Z,67.03
2018-06-22T20:00:09.957Z,66.41
2018-06-22T20:02:39.298Z,67.15
2018-06-22T20:05:08.482Z,67.03
2018-06-22T20:07:40.872Z,67.77
2018-06-22T20:10:10.062Z,68.10
2018-06-22T20:12:41.111Z,68.29
2018-06-22T20:15:11.985Z,67.35
2018-06-22T20:17:43.329Z,67.06
2018-06-22T20:20:12.560Z,67.37
2018-06-22T20:22:41.832Z,66.87
2018-06-22T20:25:18.274Z,67.40
2018-06-22T20:27:49.251Z,68.25
2018-06-22T20:30:20.530Z,68.65
2018-06-22T20:32:51.536Z,69.00
2018-06-22T20:35:28.037Z,68.76
2018-06-22T20:38:04.444Z,69.85
2018-06-22T20:40:40.862Z,69.54
2018-06-22T20:43:19.387Z,69.17
2018-06-22T20:45:53.136Z,70.52
2018-06-22T20:48:27.597Z,70.98
2018-06-22T20:50:58.460Z,71.41
2018-06-22T20:53:28.161Z,72.28
2018-06-22T20:55:59.304Z,72.47
2018-06-22T20:58:28.558Z,72.63
2018-06-22T21:00:59.952Z,72.21
2018-06-22T21:03:39.692Z,72.28
2018-06-22T21:06:10.688Z,71.58
2018-06-22T21:08:44.151Z,71.79
2018-06-22T21:11:15.805Z,70.74
2018-06-22T21:13:45.664Z,68.43
2018-06-22T21:16:14.952Z,68.18
2018-06-22T21:18:45.855Z,68.66
2018-06-22T21:21:20.383Z,68.88
2018-06-22T21:23:52.222Z,68.04
2018-06-22T21:26:21.564Z,67.86
2018-06-22T21:28:56.050Z,68.45
2018-06-22T21:31:32.452Z,67.13
2018-06-22T21:34:08.679Z,67.23
2018-06-22T21:36:43.022Z,66.88
2018-06-22T21:39:14.306Z,66.78
2018-06-22T21:41:47.666Z,67.05
2018-06-22T21:44:16.872Z,67.92
2018-06-22T21:46:48.050Z,68.07
2018-06-22T21:49:17.162Z,67.50
2018-06-22T21:51:50.547Z,67.25
2018-06-22T21:54:19.765Z,67.63
2018-06-22T21:56:51.254Z,68.07
2018-06-22T21:59:20.425Z,67.17
2018-06-22T22:01:53.100Z,68.27
2018-06-22T22:04:24.021Z,69.26
2018-06-22T22:07:00.010Z,70.11
2018-06-22T22:09:36.654Z,70.25
2018-06-22T22:12:07.785Z,70.30
2018-06-22T22:14:40.884Z,70.54
2018-06-22T22:17:13.269Z,71.86
2018-06-22T22:19:44.074Z,71.04
2018-06-22T22:22:13.873Z,71.48
2018-06-22T22:24:43.088Z,70.79
2018-06-22T22:27:12.269Z,70.44
2018-06-22T22:29:41.485Z,70.57
2018-06-22T22:32:16.969Z,70.02
2018-06-22T22:34:46.173Z,70.79
2018-06-22T22:37:15.384Z,70.99
2018-06-22T22:39:44.553Z,70.42
2018-06-22T22:42:16.439Z,70.59
2018-06-22T22:44:47.290Z,70.92
2018-06-22T22:47:18.896Z,71.50
2018-06-22T22:49:53.092Z,71.79
2018-06-22T22:52:23.021Z,72.15
2018-06-22T22:54:52.185Z,72.36
2018-06-22T22:57:21.751Z,72.41
2018-06-22T22:59:54.634Z,72.33
2018-06-22T23:02:26.830Z,72.62
2018-06-22T23:04:56.085Z,72.93
2018-06-22T23:30:15.056Z,72.54
2018-06-22T23:32:44.312Z,76.30
2018-06-22T23:35:13.590Z,75.83
2018-06-22T23:37:44.498Z,75.92
2018-06-22T23:40:13.734Z,76.45
2018-06-22T23:42:42.999Z,76.04
2018-06-22T23:45:13.840Z,76.61
2018-06-22T23:47:42.985Z,76.05
2018-06-22T23:50:16.622Z,76.18
2018-06-22T23:52:47.706Z,76.47
2018-06-22T23:55:21.567Z,76.73
2018-06-22T23:57:50.788Z,76.35
